sensor_id;sensor_type;location;lat;lon;timestamp;P1;P2;P0
80555;PMS5003;69889;55.040;73.076;2024-01-06T00:01:40;24.00;19.75;10.75
80555;PMS5003;69889;55.040;73.076;2024-01-06T00:04:06;23.25;19.75;11.75
80555;PMS5003;69889;55.040;73.076;2024-01-06T00:06:32;22.25;18.50;10.25
80555;PMS5003;69889;55.040;73.076;2024-01-06T00:08:59;23.00;18.00;9.00
80555;PMS5003;69889;55.040;73.076;2024-01-06T00:11:25;21.00;17.00;11.00
80555;PMS5003;69889;55.040;73.076;2024-01-06T00:13:51;20.00;17.75;11.25
80555;PMS5003;69889;55.040;73.076;2024-01-06T00:16:18;22.00;19.00;10.50
80555;PMS5003;69889;55.040;73.076;2024-01-06T00:18:45;24.00;20.00;10.00
80555;PMS5003;69889;55.040;73.076;2024-01-06T00:21:12;20.00;16.75;11.00
80555;PMS5003;69889;55.040;73.076;2024-01-06T00:23:41;22.00;19.00;11.00
80555;PMS5003;69889;55.040;73.076;2024-01-06T00:26:09;25.50;19.50;10.75
80555;PMS5003;69889;55.040;73.076;2024-01-06T00:28:35;22.50;18.75;11.00
80555;PMS5003;69889;55.040;73.076;2024-01-06T00:31:01;20.00;16.50;10.00
80555;PMS5003;69889;55.040;73.076;2024-01-06T00:33:28;23.00;19.00;11.75
80555;PMS5003;69889;55.040;73.076;2024-01-06T00:35:54;20.75;17.50;11.75
80555;PMS5003;69889;55.040;73.076;2024-01-06T00:38:21;19.50;17.00;9.75
80555;PMS5003;69889;55.040;73.076;2024-01-06T00:40:48;22.50;19.75;11.00
80555;PMS5003;69889;55.040;73.076;2024-01-06T00:43:14;19.75;16.75;10.00
80555;PMS5003;69889;55.040;73.076;2024-01-06T00:45:40;23.25;19.00;11.75
80555;PMS5003;69889;55.040;73.076;2024-01-06T00:48:07;23.50;19.00;12.00
80555;PMS5003;69889;55.040;73.076;2024-01-06T00:50:33;26.50;22.25;12.25
80555;PMS5003;69889;55.040;73.076;2024-01-06T00:52:59;26.00;21.00;13.00
80555;PMS5003;69889;55.040;73.076;2024-01-06T00:55:26;22.25;18.75;10.00
80555;PMS5003;69889;55.040;73.076;2024-01-06T00:57:52;23.00;19.75;11.00
80555;PMS5003;69889;55.040;73.076;2024-01-06T01:00:19;29.00;23.00;13.00
80555;PMS5003;69889;55.040;73.076;2024-01-06T01:02:45;25.25;20.75;12.50
80555;PMS5003;69889;55.040;73.076;2024-01-06T01:05:11;21.50;17.25;11.50
80555;PMS5003;69889;55.040;73.076;2024-01-06T01:07:38;21.50;18.25;10.50
80555;PMS5003;69889;55.040;73.076;2024-01-06T01:10:04;24.00;19.25;10.25
80555;PMS5003;69889;55.040;73.076;2024-01-06T01:12:31;19.50;18.00;11.00
80555;PMS5003;69889;55.040;73.076;2024-01-06T01:14:58;19.75;16.00;9.75
80555;PMS5003;69889;55.040;73.076;2024-01-06T01:17:24;22.00;17.75;11.75
80555;PMS5003;69889;55.040;73.076;2024-01-06T01:19:50;23.00;17.75;10.25
80555;PMS5003;69889;55.040;73.076;2024-01-06T01:22:16;22.75;18.50;10.75
80555;PMS5003;69889;55.040;73.076;2024-01-06T01:24:43;21.25;18.25;11.00
80555;PMS5003;69889;55.040;73.076;2024-01-06T01:27:09;24.00;18.50;11.25
80555;PMS5003;69889;55.040;73.076;2024-01-06T01:29:36;23.00;19.75;11.50
80555;PMS5003;69889;55.040;73.076;2024-01-06T01:32:02;23.50;19.75;12.25
80555;PMS5003;69889;55.040;73.076;2024-01-06T01:34:28;20.50;17.50;11.00
80555;PMS5003;69889;55.040;73.076;2024-01-06T01:36:55;21.75;19.75;13.00
80555;PMS5003;69889;55.040;73.076;2024-01-06T01:39:21;23.75;19.50;11.50
80555;PMS5003;69889;55.040;73.076;2024-01-06T01:41:47;29.00;22.00;11.00
80555;PMS5003;69889;55.040;73.076;2024-01-06T01:44:15;23.50;20.00;11.25
80555;PMS5003;69889;55.040;73.076;2024-01-06T01:46:42;19.25;18.00;10.50
80555;PMS5003;69889;55.040;73.076;2024-01-06T01:49:08;19.50;17.25;10.50
80555;PMS5003;69889;55.040;73.076;2024-01-06T01:51:34;22.00;19.00;11.00
80555;PMS5003;69889;55.040;73.076;2024-01-06T01:54:01;23.75;19.75;12.00
80555;PMS5003;69889;55.040;73.076;2024-01-06T01:56:30;25.00;20.00;11.75
80555;PMS5003;69889;55.040;73.076;2024-01-06T01:59:04;25.00;20.50;11.50
80555;PMS5003;69889;55.040;73.076;2024-01-06T02:01:32;23.50;20.25;11.75
80555;PMS5003;69889;55.040;73.076;2024-01-06T02:03:59;22.25;19.50;11.50
80555;PMS5003;69889;55.040;73.076;2024-01-06T02:06:25;22.25;19.25;12.00
80555;PMS5003;69889;55.040;73.076;2024-01-06T02:08:51;23.75;20.00;11.50
80555;PMS5003;69889;55.040;73.076;2024-01-06T02:11:17;20.50;18.25;11.25
80555;PMS5003;69889;55.040;73.076;2024-01-06T02:13:44;23.00;19.75;12.00
80555;PMS5003;69889;55.040;73.076;2024-01-06T02:16:10;26.00;22.25;12.50
80555;PMS5003;69889;55.040;73.076;2024-01-06T02:18:36;27.00;21.75;12.50
80555;PMS5003;69889;55.040;73.076;2024-01-06T02:21:03;27.25;22.50;13.75
80555;PMS5003;69889;55.040;73.076;2024-01-06T02:23:29;25.75;22.75;14.00
80555;PMS5003;69889;55.040;73.076;2024-01-06T02:25:56;24.25;19.50;11.50
80555;PMS5003;69889;55.040;73.076;2024-01-06T02:28:23;26.00;20.75;12.25
80555;PMS5003;69889;55.040;73.076;2024-01-06T02:30:49;26.50;20.75;12.00
80555;PMS5003;69889;55.040;73.076;2024-01-06T02:33:15;23.00;18.50;12.00
80555;PMS5003;69889;55.040;73.076;2024-01-06T02:35:42;24.50;19.50;11.50
80555;PMS5003;69889;55.040;73.076;2024-01-06T02:38:08;30.00;21.50;13.00
80555;PMS5003;69889;55.040;73.076;2024-01-06T02:40:35;28.00;21.50;11.50
80555;PMS5003;69889;55.040;73.076;2024-01-06T02:43:02;22.50;19.25;11.50
80555;PMS5003;69889;55.040;73.076;2024-01-06T02:45:28;23.25;19.75;12.00
80555;PMS5003;69889;55.040;73.076;2024-01-06T02:47:54;25.50;20.75;12.25
80555;PMS5003;69889;55.040;73.076;2024-01-06T02:50:21;23.50;20.50;13.00
80555;PMS5003;69889;55.040;73.076;2024-01-06T02:52:48;25.00;21.00;12.75
80555;PMS5003;69889;55.040;73.076;2024-01-06T02:55:14;21.75;19.00;11.75
80555;PMS5003;69889;55.040;73.076;2024-01-06T02:57:40;25.00;20.00;12.50
80555;PMS5003;69889;55.040;73.076;2024-01-06T03:00:07;27.50;21.75;13.75
80555;PMS5003;69889;55.040;73.076;2024-01-06T03:02:34;25.25;20.50;12.25
80555;PMS5003;69889;55.040;73.076;2024-01-06T03:05:02;27.00;21.00;12.00
80555;PMS5003;69889;55.040;73.076;2024-01-06T03:07:28;23.00;19.50;12.00
80555;PMS5003;69889;55.040;73.076;2024-01-06T03:09:54;22.50;19.50;11.25
80555;PMS5003;69889;55.040;73.076;2024-01-06T03:12:21;25.75;20.25;12.00
80555;PMS5003;69889;55.040;73.076;2024-01-06T03:14:49;22.00;17.50;11.50
80555;PMS5003;69889;55.040;73.076;2024-01-06T03:17:15;27.50;21.50;12.00
80555;PMS5003;69889;55.040;73.076;2024-01-06T03:19:41;27.75;23.00;13.25
80555;PMS5003;69889;55.040;73.076;2024-01-06T03:22:08;27.50;21.75;13.25
80555;PMS5003;69889;55.040;73.076;2024-01-06T03:24:34;25.25;22.25;13.00
80555;PMS5003;69889;55.040;73.076;2024-01-06T03:27:00;26.25;21.75;11.75
80555;PMS5003;69889;55.040;73.076;2024-01-06T03:29:27;24.75;21.25;13.00
80555;PMS5003;69889;55.040;73.076;2024-01-06T03:31:53;27.25;22.50;13.50
80555;PMS5003;69889;55.040;73.076;2024-01-06T03:34:19;28.25;23.00;12.50
80555;PMS5003;69889;55.040;73.076;2024-01-06T03:36:46;27.50;22.00;13.50
80555;PMS5003;69889;55.040;73.076;2024-01-06T03:39:12;25.75;21.75;12.75
80555;PMS5003;69889;55.040;73.076;2024-01-06T03:41:39;28.75;23.50;13.75
80555;PMS5003;69889;55.040;73.076;2024-01-06T03:44:06;27.50;21.50;13.00
80555;PMS5003;69889;55.040;73.076;2024-01-06T03:46:33;24.75;20.75;13.50
80555;PMS5003;69889;55.040;73.076;2024-01-06T03:48:59;24.50;20.50;11.75
80555;PMS5003;69889;55.040;73.076;2024-01-06T03:51:25;26.50;22.00;13.00
80555;PMS5003;69889;55.040;73.076;2024-01-06T03:53:51;24.25;20.00;13.50
80555;PMS5003;69889;55.040;73.076;2024-01-06T03:56:18;24.50;21.00;13.75
80555;PMS5003;69889;55.040;73.076;2024-01-06T03:58:44;26.00;21.50;13.00
80555;PMS5003;69889;55.040;73.076;2024-01-06T04:01:10;27.00;22.50;13.50
80555;PMS5003;69889;55.040;73.076;2024-01-06T04:03:38;26.75;22.50;13.75
80555;PMS5003;69889;55.040;73.076;2024-01-06T04:06:06;26.50;21.75;13.00
80555;PMS5003;69889;55.040;73.076;2024-01-06T04:08:32;23.50;19.50;11.75
80555;PMS5003;69889;55.040;73.076;2024-01-06T04:10:59;24.00;19.50;11.50
80555;PMS5003;69889;55.040;73.076;2024-01-06T04:13:25;26.00;21.50;13.00
80555;PMS5003;69889;55.040;73.076;2024-01-06T04:15:51;22.75;20.00;12.50
80555;PMS5003;69889;55.040;73.076;2024-01-06T04:18:18;23.75;20.50;12.50
80555;PMS5003;69889;55.040;73.076;2024-01-06T04:20:44;27.50;22.75;13.50
80555;PMS5003;69889;55.040;73.076;2024-01-06T04:23:10;22.50;19.00;12.00
80555;PMS5003;69889;55.040;73.076;2024-01-06T04:25:37;31.50;24.00;14.00
80555;PMS5003;69889;55.040;73.076;2024-01-06T04:28:03;25.75;21.25;13.50
80555;PMS5003;69889;55.040;73.076;2024-01-06T04:30:29;26.00;21.75;13.50
80555;PMS5003;69889;55.040;73.076;2024-01-06T04:32:56;24.75;21.50;12.25
80555;PMS5003;69889;55.040;73.076;2024-01-06T04:35:23;28.00;22.75;15.00
80555;PMS5003;69889;55.040;73.076;2024-01-06T04:37:50;23.50;21.00;14.25
80555;PMS5003;69889;55.040;73.076;2024-01-06T04:40:16;27.00;23.00;14.00
80555;PMS5003;69889;55.040;73.076;2024-01-06T04:42:42;22.75;20.00;12.50
80555;PMS5003;69889;55.040;73.076;2024-01-06T04:45:09;24.50;20.75;12.75
80555;PMS5003;69889;55.040;73.076;2024-01-06T04:47:36;25.50;22.75;13.50
80555;PMS5003;69889;55.040;73.076;2024-01-06T04:50:02;28.00;21.25;13.25
80555;PMS5003;69889;55.040;73.076;2024-01-06T04:52:29;25.50;21.00;12.50
80555;PMS5003;69889;55.040;73.076;2024-01-06T04:54:55;28.25;22.25;13.50
80555;PMS5003;69889;55.040;73.076;2024-01-06T04:57:22;27.50;23.50;14.50
80555;PMS5003;69889;55.040;73.076;2024-01-06T04:59:48;25.75;21.75;14.00
80555;PMS5003;69889;55.040;73.076;2024-01-06T05:02:14;27.50;24.00;14.25
80555;PMS5003;69889;55.040;73.076;2024-01-06T05:04:41;29.50;24.00;14.75
80555;PMS5003;69889;55.040;73.076;2024-01-06T05:07:08;25.50;21.50;13.75
80555;PMS5003;69889;55.040;73.076;2024-01-06T05:09:34;28.50;22.75;13.50
80555;PMS5003;69889;55.040;73.076;2024-01-06T05:12:00;31.25;24.50;15.00
80555;PMS5003;69889;55.040;73.076;2024-01-06T05:14:27;28.50;23.25;15.00
80555;PMS5003;69889;55.040;73.076;2024-01-06T05:16:53;26.00;22.25;14.25
80555;PMS5003;69889;55.040;73.076;2024-01-06T05:19:19;25.75;20.75;13.00
80555;PMS5003;69889;55.040;73.076;2024-01-06T05:21:55;30.25;24.25;14.25
80555;PMS5003;69889;55.040;73.076;2024-01-06T05:24:22;31.00;24.00;14.00
80555;PMS5003;69889;55.040;73.076;2024-01-06T05:26:48;27.50;23.00;13.25
80555;PMS5003;69889;55.040;73.076;2024-01-06T05:29:15;25.75;21.50;12.50
80555;PMS5003;69889;55.040;73.076;2024-01-06T05:31:41;26.75;23.00;14.75
80555;PMS5003;69889;55.040;73.076;2024-01-06T05:34:07;31.00;23.75;13.00
80555;PMS5003;69889;55.040;73.076;2024-01-06T05:36:34;25.00;21.50;13.00
80555;PMS5003;69889;55.040;73.076;2024-01-06T05:39:00;32.75;25.25;14.50
80555;PMS5003;69889;55.040;73.076;2024-01-06T05:41:26;27.25;22.50;13.75
80555;PMS5003;69889;55.040;73.076;2024-01-06T05:43:53;24.50;21.25;13.00
80555;PMS5003;69889;55.040;73.076;2024-01-06T05:46:23;26.50;23.00;14.00
80555;PMS5003;69889;55.040;73.076;2024-01-06T05:48:50;24.50;20.75;13.50
80555;PMS5003;69889;55.040;73.076;2024-01-06T05:51:16;26.00;22.50;14.25
80555;PMS5003;69889;55.040;73.076;2024-01-06T05:53:43;26.50;21.50;13.00
80555;PMS5003;69889;55.040;73.076;2024-01-06T05:56:09;26.25;21.50;13.75
80555;PMS5003;69889;55.040;73.076;2024-01-06T05:58:35;28.50;22.50;14.25
80555;PMS5003;69889;55.040;73.076;2024-01-06T06:01:02;28.75;24.00;14.50
80555;PMS5003;69889;55.040;73.076;2024-01-06T06:03:28;29.00;23.75;15.00
80555;PMS5003;69889;55.040;73.076;2024-01-06T06:05:55;24.75;21.75;13.50
80555;PMS5003;69889;55.040;73.076;2024-01-06T06:08:21;25.50;21.00;12.50
80555;PMS5003;69889;55.040;73.076;2024-01-06T06:10:47;21.00;18.50;12.25
80555;PMS5003;69889;55.040;73.076;2024-01-06T06:13:31;23.50;18.75;10.50
80555;PMS5003;69889;55.040;73.076;2024-01-06T06:15:57;22.25;18.75;9.75
80555;PMS5003;69889;55.040;73.076;2024-01-06T06:18:23;25.50;19.00;12.00
80555;PMS5003;69889;55.040;73.076;2024-01-06T06:20:50;25.00;21.00;13.00
80555;PMS5003;69889;55.040;73.076;2024-01-06T06:23:16;23.00;20.00;13.00
80555;PMS5003;69889;55.040;73.076;2024-01-06T06:25:42;22.25;18.25;11.75
80555;PMS5003;69889;55.040;73.076;2024-01-06T06:28:10;22.00;19.00;11.00
80555;PMS5003;69889;55.040;73.076;2024-01-06T06:30:36;25.75;20.50;11.50
80555;PMS5003;69889;55.040;73.076;2024-01-06T06:33:02;21.25;18.00;10.75
80555;PMS5003;69889;55.040;73.076;2024-01-06T06:35:29;21.00;17.75;11.25
80555;PMS5003;69889;55.040;73.076;2024-01-06T06:37:55;19.25;16.75;10.75
80555;PMS5003;69889;55.040;73.076;2024-01-06T06:40:21;20.00;17.00;10.50
80555;PMS5003;69889;55.040;73.076;2024-01-06T06:42:48;20.75;17.50;10.25
80555;PMS5003;69889;55.040;73.076;2024-01-06T06:45:14;22.00;19.25;11.75
80555;PMS5003;69889;55.040;73.076;2024-01-06T06:47:40;19.25;17.00;10.00
80555;PMS5003;69889;55.040;73.076;2024-01-06T06:50:07;20.75;17.50;11.00
80555;PMS5003;69889;55.040;73.076;2024-01-06T06:52:33;22.75;20.00;13.00
80555;PMS5003;69889;55.040;73.076;2024-01-06T06:54:59;23.00;19.50;12.25
80555;PMS5003;69889;55.040;73.076;2024-01-06T06:57:26;18.75;14.75;10.25
80555;PMS5003;69889;55.040;73.076;2024-01-06T06:59:52;21.50;18.00;11.00
80555;PMS5003;69889;55.040;73.076;2024-01-06T07:02:18;20.25;17.75;11.00
80555;PMS5003;69889;55.040;73.076;2024-01-06T07:04:45;21.25;18.50;10.75
80555;PMS5003;69889;55.040;73.076;2024-01-06T07:07:11;24.00;20.00;11.75
80555;PMS5003;69889;55.040;73.076;2024-01-06T07:09:37;19.75;17.00;11.00
80555;PMS5003;69889;55.040;73.076;2024-01-06T07:12:04;21.00;18.00;10.75
80555;PMS5003;69889;55.040;73.076;2024-01-06T07:14:30;22.50;19.00;10.50
80555;PMS5003;69889;55.040;73.076;2024-01-06T07:16:57;26.00;19.00;11.00
80555;PMS5003;69889;55.040;73.076;2024-01-06T07:19:23;21.25;17.00;10.75
80555;PMS5003;69889;55.040;73.076;2024-01-06T07:21:50;23.75;19.75;11.50
80555;PMS5003;69889;55.040;73.076;2024-01-06T07:24:16;19.25;16.00;10.00
80555;PMS5003;69889;55.040;73.076;2024-01-06T07:26:43;21.50;18.50;10.25
80555;PMS5003;69889;55.040;73.076;2024-01-06T07:29:09;24.00;19.00;12.00
80555;PMS5003;69889;55.040;73.076;2024-01-06T07:31:35;20.25;16.00;10.25
80555;PMS5003;69889;55.040;73.076;2024-01-06T07:34:01;21.00;18.00;10.50
80555;PMS5003;69889;55.040;73.076;2024-01-06T07:36:28;18.25;14.75;9.50
80555;PMS5003;69889;55.040;73.076;2024-01-06T07:38:54;20.00;17.50;10.50
80555;PMS5003;69889;55.040;73.076;2024-01-06T07:41:21;19.50;16.75;10.00
80555;PMS5003;69889;55.040;73.076;2024-01-06T07:43:47;23.00;19.00;12.00
80555;PMS5003;69889;55.040;73.076;2024-01-06T07:46:14;17.00;15.00;10.00
80555;PMS5003;69889;55.040;73.076;2024-01-06T07:48:40;20.25;17.25;10.50
80555;PMS5003;69889;55.040;73.076;2024-01-06T07:51:06;20.75;15.75;9.00
80555;PMS5003;69889;55.040;73.076;2024-01-06T07:53:32;22.50;18.75;9.75
80555;PMS5003;69889;55.040;73.076;2024-01-06T07:55:59;18.75;16.00;9.75
80555;PMS5003;69889;55.040;73.076;2024-01-06T07:58:25;19.75;16.25;9.75
80555;PMS5003;69889;55.040;73.076;2024-01-06T08:00:51;20.50;18.25;10.25
80555;PMS5003;69889;55.040;73.076;2024-01-06T08:03:18;18.25;15.75;10.00
80555;PMS5003;69889;55.040;73.076;2024-01-06T08:05:44;22.75;19.00;10.75
80555;PMS5003;69889;55.040;73.076;2024-01-06T08:08:11;19.25;16.00;9.50
80555;PMS5003;69889;55.040;73.076;2024-01-06T08:10:39;21.25;17.50;11.00
80555;PMS5003;69889;55.040;73.076;2024-01-06T08:13:05;23.50;19.25;11.50
80555;PMS5003;69889;55.040;73.076;2024-01-06T08:15:32;22.25;18.00;12.00
80555;PMS5003;69889;55.040;73.076;2024-01-06T08:17:58;21.75;18.00;10.75
80555;PMS5003;69889;55.040;73.076;2024-01-06T08:20:24;19.25;16.00;10.50
80555;PMS5003;69889;55.040;73.076;2024-01-06T08:22:51;19.75;17.00;12.00
80555;PMS5003;69889;55.040;73.076;2024-01-06T08:25:17;19.50;17.50;9.75
80555;PMS5003;69889;55.040;73.076;2024-01-06T08:27:49;22.75;19.00;10.00
80555;PMS5003;69889;55.040;73.076;2024-01-06T08:30:16;22.00;18.00;10.25
80555;PMS5003;69889;55.040;73.076;2024-01-06T08:32:42;17.50;15.75;9.25
80555;PMS5003;69889;55.040;73.076;2024-01-06T08:35:09;21.00;17.50;11.00
80555;PMS5003;69889;55.040;73.076;2024-01-06T08:37:35;23.00;19.00;12.00
80555;PMS5003;69889;55.040;73.076;2024-01-06T08:40:02;22.00;19.00;11.00
80555;PMS5003;69889;55.040;73.076;2024-01-06T08:42:30;22.00;17.25;10.75
80555;PMS5003;69889;55.040;73.076;2024-01-06T08:44:56;17.75;16.00;10.00
80555;PMS5003;69889;55.040;73.076;2024-01-06T08:47:23;20.75;18.00;10.25
80555;PMS5003;69889;55.040;73.076;2024-01-06T08:49:49;20.50;17.25;9.75
80555;PMS5003;69889;55.040;73.076;2024-01-06T08:52:15;21.00;18.00;12.00
80555;PMS5003;69889;55.040;73.076;2024-01-06T08:54:42;19.75;16.25;8.50
80555;PMS5003;69889;55.040;73.076;2024-01-06T08:57:09;19.00;15.50;10.00
80555;PMS5003;69889;55.040;73.076;2024-01-06T08:59:35;21.25;17.75;11.00
80555;PMS5003;69889;55.040;73.076;2024-01-06T09:02:02;20.75;17.75;11.00
80555;PMS5003;69889;55.040;73.076;2024-01-06T09:04:28;22.75;18.50;10.50
80555;PMS5003;69889;55.040;73.076;2024-01-06T09:06:56;23.00;19.75;12.50
80555;PMS5003;69889;55.040;73.076;2024-01-06T09:09:22;22.75;19.50;12.00
80555;PMS5003;69889;55.040;73.076;2024-01-06T09:11:49;43.00;35.50;21.00
80555;PMS5003;69889;55.040;73.076;2024-01-06T09:14:16;28.50;22.50;13.50
80555;PMS5003;69889;55.040;73.076;2024-01-06T09:16:43;28.00;22.00;13.00
80555;PMS5003;69889;55.040;73.076;2024-01-06T09:19:09;23.75;19.75;11.75
80555;PMS5003;69889;55.040;73.076;2024-01-06T09:21:35;22.00;19.00;11.50
80555;PMS5003;69889;55.040;73.076;2024-01-06T09:24:02;22.50;18.00;10.75
80555;PMS5003;69889;55.040;73.076;2024-01-06T09:26:32;24.50;20.50;13.00
80555;PMS5003;69889;55.040;73.076;2024-01-06T09:29:00;24.25;21.00;11.75
80555;PMS5003;69889;55.040;73.076;2024-01-06T09:31:26;21.00;18.00;11.00
80555;PMS5003;69889;55.040;73.076;2024-01-06T09:33:53;24.25;19.50;11.75
80555;PMS5003;69889;55.040;73.076;2024-01-06T09:36:19;20.50;19.00;12.00
80555;PMS5003;69889;55.040;73.076;2024-01-06T09:38:46;21.00;18.00;10.50
80555;PMS5003;69889;55.040;73.076;2024-01-06T09:41:12;22.25;19.25;12.00
80555;PMS5003;69889;55.040;73.076;2024-01-06T09:43:38;22.25;18.50;11.75
80555;PMS5003;69889;55.040;73.076;2024-01-06T09:46:06;23.75;20.00;11.00
80555;PMS5003;69889;55.040;73.076;2024-01-06T09:48:33;21.25;19.00;13.00
80555;PMS5003;69889;55.040;73.076;2024-01-06T09:51:01;26.75;23.00;13.75
80555;PMS5003;69889;55.040;73.076;2024-01-06T09:53:28;22.50;20.25;13.25
80555;PMS5003;69889;55.040;73.076;2024-01-06T09:55:59;22.00;18.25;11.75
80555;PMS5003;69889;55.040;73.076;2024-01-06T09:58:26;27.25;22.75;13.25
80555;PMS5003;69889;55.040;73.076;2024-01-06T10:00:56;23.50;20.50;12.50
80555;PMS5003;69889;55.040;73.076;2024-01-06T10:03:22;24.75;21.00;14.00
80555;PMS5003;69889;55.040;73.076;2024-01-06T10:05:48;26.25;21.25;12.50
80555;PMS5003;69889;55.040;73.076;2024-01-06T10:08:15;24.25;20.50;12.00
80555;PMS5003;69889;55.040;73.076;2024-01-06T10:10:44;23.75;20.00;12.00
80555;PMS5003;69889;55.040;73.076;2024-01-06T10:13:10;27.75;22.50;12.50
80555;PMS5003;69889;55.040;73.076;2024-01-06T10:15:36;22.00;20.00;12.50
80555;PMS5003;69889;55.040;73.076;2024-01-06T10:18:03;21.25;18.00;11.75
80555;PMS5003;69889;55.040;73.076;2024-01-06T10:20:29;19.25;18.00;11.00
80555;PMS5003;69889;55.040;73.076;2024-01-06T10:22:55;23.00;18.75;12.50
80555;PMS5003;69889;55.040;73.076;2024-01-06T10:25:30;24.50;20.00;12.50
80555;PMS5003;69889;55.040;73.076;2024-01-06T10:27:56;21.25;19.00;11.75
80555;PMS5003;69889;55.040;73.076;2024-01-06T10:30:23;23.25;18.50;11.25
80555;PMS5003;69889;55.040;73.076;2024-01-06T10:32:50;25.00;20.50;12.00
80555;PMS5003;69889;55.040;73.076;2024-01-06T10:35:18;21.25;17.50;10.75
80555;PMS5003;69889;55.040;73.076;2024-01-06T10:37:45;21.50;18.25;11.75
80555;PMS5003;69889;55.040;73.076;2024-01-06T10:40:12;22.50;18.50;9.75
80555;PMS5003;69889;55.040;73.076;2024-01-06T10:42:40;20.00;16.50;9.75
80555;PMS5003;69889;55.040;73.076;2024-01-06T10:45:06;18.75;15.50;9.00
80555;PMS5003;69889;55.040;73.076;2024-01-06T10:47:36;18.50;16.25;9.50
80555;PMS5003;69889;55.040;73.076;2024-01-06T10:50:03;22.50;17.50;11.00
80555;PMS5003;69889;55.040;73.076;2024-01-06T10:52:30;22.25;18.75;12.25
80555;PMS5003;69889;55.040;73.076;2024-01-06T10:54:57;23.00;17.75;11.00
80555;PMS5003;69889;55.040;73.076;2024-01-06T10:57:23;17.75;16.00;10.25
80555;PMS5003;69889;55.040;73.076;2024-01-06T10:59:50;23.00;18.25;11.25
80555;PMS5003;69889;55.040;73.076;2024-01-06T11:02:17;19.50;17.75;10.75
80555;PMS5003;69889;55.040;73.076;2024-01-06T11:04:47;21.50;18.75;12.25
80555;PMS5003;69889;55.040;73.076;2024-01-06T11:07:14;24.00;21.00;13.00
80555;PMS5003;69889;55.040;73.076;2024-01-06T11:09:46;23.75;21.50;14.00
80555;PMS5003;69889;55.040;73.076;2024-01-06T11:12:16;33.25;26.50;17.00
80555;PMS5003;69889;55.040;73.076;2024-01-06T11:14:52;33.25;27.00;17.00
80555;PMS5003;69889;55.040;73.076;2024-01-06T11:20:07;35.00;27.75;18.50
80555;PMS5003;69889;55.040;73.076;2024-01-06T11:22:33;33.00;26.25;16.25
80555;PMS5003;69889;55.040;73.076;2024-01-06T11:25:06;26.50;23.75;15.00
80555;PMS5003;69889;55.040;73.076;2024-01-06T11:27:33;29.75;23.75;14.00
80555;PMS5003;69889;55.040;73.076;2024-01-06T11:30:03;27.25;21.25;11.00
80555;PMS5003;69889;55.040;73.076;2024-01-06T11:32:35;26.75;20.00;13.00
80555;PMS5003;69889;55.040;73.076;2024-01-06T11:35:05;24.00;20.00;12.00
80555;PMS5003;69889;55.040;73.076;2024-01-06T11:40:07;27.00;22.00;13.00
80555;PMS5003;69889;55.040;73.076;2024-01-06T11:42:34;20.50;16.00;9.75
80555;PMS5003;69889;55.040;73.076;2024-01-06T11:45:02;24.00;18.50;11.00
80555;PMS5003;69889;55.040;73.076;2024-01-06T11:47:30;21.00;16.75;10.50
80555;PMS5003;69889;55.040;73.076;2024-01-06T11:49:57;17.00;14.75;8.75
80555;PMS5003;69889;55.040;73.076;2024-01-06T11:52:25;24.50;20.50;14.00
80555;PMS5003;69889;55.040;73.076;2024-01-06T11:54:54;36.50;31.00;19.00
80555;PMS5003;69889;55.040;73.076;2024-01-06T11:57:21;31.00;25.00;15.75
80555;PMS5003;69889;55.040;73.076;2024-01-06T11:59:48;30.50;24.50;15.25
80555;PMS5003;69889;55.040;73.076;2024-01-06T12:02:17;36.50;29.50;18.25
80555;PMS5003;69889;55.040;73.076;2024-01-06T12:04:47;41.25;33.00;22.00
80555;PMS5003;69889;55.040;73.076;2024-01-06T12:07:15;37.50;29.50;18.75
80555;PMS5003;69889;55.040;73.076;2024-01-06T12:09:42;37.25;30.75;19.50
80555;PMS5003;69889;55.040;73.076;2024-01-06T12:12:08;34.50;28.50;18.00
80555;PMS5003;69889;55.040;73.076;2024-01-06T12:14:56;31.50;26.25;17.00
80555;PMS5003;69889;55.040;73.076;2024-01-06T12:17:22;32.25;27.25;17.75
80555;PMS5003;69889;55.040;73.076;2024-01-06T12:19:54;35.00;28.50;17.75
80555;PMS5003;69889;55.040;73.076;2024-01-06T12:22:25;42.50;33.50;20.00
80555;PMS5003;69889;55.040;73.076;2024-01-06T12:24:52;47.00;36.50;21.50
80555;PMS5003;69889;55.040;73.076;2024-01-06T12:27:19;44.75;35.75;21.50
80555;PMS5003;69889;55.040;73.076;2024-01-06T12:30:00;43.50;34.75;21.75
80555;PMS5003;69889;55.040;73.076;2024-01-06T12:32:40;46.50;35.50;22.00
80555;PMS5003;69889;55.040;73.076;2024-01-06T12:35:19;43.50;34.50;21.00
80555;PMS5003;69889;55.040;73.076;2024-01-06T12:37:45;46.25;36.50;22.75
80555;PMS5003;69889;55.040;73.076;2024-01-06T12:40:12;47.50;36.75;21.75
80555;PMS5003;69889;55.040;73.076;2024-01-06T12:42:39;51.25;38.50;24.75
80555;PMS5003;69889;55.040;73.076;2024-01-06T12:45:05;52.50;40.25;23.50
80555;PMS5003;69889;55.040;73.076;2024-01-06T12:47:32;51.00;39.00;23.75
80555;PMS5003;69889;55.040;73.076;2024-01-06T12:49:59;50.50;40.50;25.25
80555;PMS5003;69889;55.040;73.076;2024-01-06T12:52:25;56.00;43.50;25.50
80555;PMS5003;69889;55.040;73.076;2024-01-06T12:54:51;55.75;42.50;26.50
80555;PMS5003;69889;55.040;73.076;2024-01-06T12:57:18;58.00;46.00;29.00
80555;PMS5003;69889;55.040;73.076;2024-01-06T12:59:45;59.75;47.50;28.00
80555;PMS5003;69889;55.040;73.076;2024-01-06T13:02:27;69.50;51.00;30.50
80555;PMS5003;69889;55.040;73.076;2024-01-06T13:04:53;72.50;56.25;32.25
80555;PMS5003;69889;55.040;73.076;2024-01-06T13:07:35;72.25;56.50;33.75
80555;PMS5003;69889;55.040;73.076;2024-01-06T13:10:02;74.00;58.25;35.50
80555;PMS5003;69889;55.040;73.076;2024-01-06T13:12:28;71.75;55.50;33.25
80555;PMS5003;69889;55.040;73.076;2024-01-06T13:14:55;61.50;48.75;29.50
80555;PMS5003;69889;55.040;73.076;2024-01-06T13:17:37;58.25;45.50;29.25
80555;PMS5003;69889;55.040;73.076;2024-01-06T13:20:04;61.25;47.50;29.50
80555;PMS5003;69889;55.040;73.076;2024-01-06T13:22:31;66.50;48.50;29.50
80555;PMS5003;69889;55.040;73.076;2024-01-06T13:24:57;59.75;46.00;28.50
80555;PMS5003;69889;55.040;73.076;2024-01-06T13:27:25;61.00;46.00;27.50
80555;PMS5003;69889;55.040;73.076;2024-01-06T13:30:11;63.25;47.50;29.50
80555;PMS5003;69889;55.040;73.076;2024-01-06T13:32:38;62.50;47.50;28.25
80555;PMS5003;69889;55.040;73.076;2024-01-06T13:35:05;64.00;49.50;30.00
80555;PMS5003;69889;55.040;73.076;2024-01-06T13:37:31;67.50;51.00;31.50
80555;PMS5003;69889;55.040;73.076;2024-01-06T13:39:58;70.25;54.75;34.75